createdAt,value
2018-06-10T00:01:40.484Z,32.55
2018-06-10T00:04:08.540Z,35.70
2018-06-10T00:06:36.604Z,29.87
2018-06-10T00:09:06.881Z,27.65
2018-06-10T00:11:34.948Z,27.90
2018-06-10T00:14:03.008Z,28.73
2018-06-10T00:16:31.081Z,26.05
2018-06-10T00:18:59.231Z,25.10
2018-06-10T00:21:27.308Z,25.77
2018-06-10T00:23:55.352Z,26.33
2018-06-10T00:26:23.429Z,28.05
2018-06-10T00:28:56.972Z,29.10
2018-06-10T00:31:25.037Z,26.23
2018-06-10T00:33:53.076Z,23.65
2018-06-10T00:36:21.128Z,24.23
2018-06-10T00:38:49.173Z,27.65
2018-06-10T00:41:17.220Z,24.85
2018-06-10T00:43:45.064Z,25.40
2018-06-10T00:46:13.117Z,26.55
2018-06-10T00:48:41.156Z,28.52
2018-06-10T00:51:09.214Z,23.77
2018-06-10T00:53:37.244Z,27.32
2018-06-10T00:57:13.897Z,21.95
2018-06-10T00:59:41.942Z,25.10
2018-06-10T01:02:09.998Z,25.88
2018-06-10T01:04:38.042Z,26.97
2018-06-10T01:07:06.084Z,38.35
2018-06-10T01:09:34.130Z,26.27
2018-06-10T01:12:02.200Z,35.17
2018-06-10T01:14:30.244Z,24.67
2018-06-10T01:16:58.290Z,25.90
2018-06-10T01:19:26.328Z,27.75
2018-06-10T01:21:54.368Z,25.23
2018-06-10T01:24:22.408Z,30.32
2018-06-10T01:26:50.997Z,33.02
2018-06-10T01:29:19.680Z,29.25
2018-06-10T01:31:47.737Z,33.20
2018-06-10T01:34:15.777Z,29.18
2018-06-10T01:36:43.828Z,39.95
2018-06-10T01:39:11.876Z,26.10
2018-06-10T01:41:39.916Z,33.20
2018-06-10T01:44:07.976Z,31.48
2018-06-10T01:46:36.021Z,32.75
2018-06-10T01:49:04.052Z,34.25
2018-06-10T01:51:32.111Z,33.78
2018-06-10T01:54:00.145Z,34.08
2018-06-10T01:56:28.205Z,32.53
2018-06-10T01:58:56.249Z,36.68
2018-06-10T02:01:24.301Z,40.10
2018-06-10T02:03:52.336Z,38.53
2018-06-10T02:06:20.383Z,43.83
2018-06-10T02:08:48.427Z,45.17
2018-06-10T02:11:16.477Z,42.60
2018-06-10T02:13:44.525Z,40.25
2018-06-10T02:16:12.576Z,33.45
2018-06-10T02:18:40.612Z,39.33
2018-06-10T02:21:08.661Z,34.45
2018-06-10T02:23:36.691Z,44.27
2018-06-10T02:26:04.769Z,28.50
2018-06-10T02:28:32.801Z,36.35
2018-06-10T02:31:00.840Z,39.73
2018-06-10T02:33:28.916Z,31.60
2018-06-10T02:35:56.984Z,37.45
2018-06-10T02:38:25.049Z,45.03
2018-06-10T02:40:53.117Z,40.75
2018-06-10T02:43:21.172Z,49.15
2018-06-10T02:45:49.235Z,46.53
2018-06-10T02:48:17.329Z,46.83
2018-06-10T02:50:45.386Z,57.70
2018-06-10T02:53:13.457Z,51.02
2018-06-10T02:55:41.526Z,47.33
2018-06-10T02:58:09.593Z,56.02
2018-06-10T03:00:37.654Z,50.00
2018-06-10T03:03:05.734Z,51.70
2018-06-10T03:05:33.789Z,47.58
2018-06-10T03:08:01.861Z,50.23
2018-06-10T03:10:29.921Z,47.03
2018-06-10T03:12:58.372Z,43.35
2018-06-10T03:15:26.424Z,49.38
2018-06-10T03:17:54.487Z,57.62
2018-06-10T03:20:22.549Z,50.92
2018-06-10T03:22:50.608Z,57.85
2018-06-10T03:25:18.668Z,58.20
2018-06-10T03:27:46.740Z,47.80
2018-06-10T03:30:14.796Z,45.48
2018-06-10T03:32:42.840Z,46.85
2018-06-10T03:35:10.876Z,41.58
2018-06-10T03:37:38.924Z,46.10
2018-06-10T03:40:06.985Z,44.63
2018-06-10T03:42:35.032Z,45.35
2018-06-10T03:45:03.073Z,43.68
2018-06-10T03:47:31.124Z,54.80
2018-06-10T03:49:59.160Z,43.80
2018-06-10T03:52:27.216Z,40.83
2018-06-10T03:54:55.254Z,52.00
2018-06-10T03:57:23.392Z,47.90
2018-06-10T03:59:51.435Z,52.88
2018-06-10T04:02:19.740Z,50.10
2018-06-10T04:04:47.776Z,55.85
2018-06-10T04:07:15.824Z,52.78
2018-06-10T04:09:43.864Z,48.50
2018-06-10T04:12:11.916Z,54.27
2018-06-10T04:14:39.957Z,50.60
2018-06-10T04:17:08.005Z,44.60
2018-06-10T04:19:36.052Z,54.98
2018-06-10T04:22:04.105Z,57.98
2018-06-10T04:24:32.150Z,50.28
2018-06-10T04:27:00.204Z,48.33
2018-06-10T04:29:28.249Z,47.95
2018-06-10T04:31:56.335Z,51.05
2018-06-10T04:34:24.393Z,43.63
2018-06-10T04:36:52.461Z,42.53
2018-06-10T04:39:20.537Z,42.30
2018-06-10T04:41:48.604Z,46.08
2018-06-10T04:44:16.656Z,49.80
2018-06-10T04:46:51.152Z,41.70
2018-06-10T04:49:19.209Z,42.78
2018-06-10T04:51:47.280Z,38.28
2018-06-10T04:54:15.369Z,40.00
2018-06-10T04:56:43.436Z,43.25
2018-06-10T04:59:11.497Z,37.50
2018-06-10T05:01:39.646Z,44.90
2018-06-10T05:04:07.704Z,39.08
2018-06-10T05:06:35.770Z,37.10
2018-06-10T05:09:05.116Z,46.92
2018-06-10T05:11:33.182Z,42.17
2018-06-10T05:14:01.240Z,34.60
2018-06-10T05:16:29.309Z,42.65
2018-06-10T05:18:57.382Z,41.65
2018-06-10T05:21:25.445Z,41.73
2018-06-10T05:23:53.537Z,37.25
2018-06-10T05:26:21.605Z,41.00
2018-06-10T05:28:49.668Z,40.12
2018-06-10T05:31:17.729Z,32.65
2018-06-10T05:33:45.819Z,34.90
2018-06-10T05:36:13.865Z,31.60
2018-06-10T05:38:41.915Z,35.92
2018-06-10T05:41:09.944Z,36.38
2018-06-10T05:43:38.016Z,36.68
2018-06-10T05:46:06.057Z,33.20
2018-06-10T05:48:34.116Z,37.55
2018-06-10T05:51:02.167Z,34.60
2018-06-10T05:53:30.205Z,34.48
2018-06-10T05:55:58.256Z,36.83
2018-06-10T05:58:26.308Z,38.23
2018-06-10T06:00:54.349Z,37.65
2018-06-10T06:03:22.396Z,35.70
2018-06-10T06:05:50.428Z,40.70
2018-06-10T06:08:18.481Z,37.65
2018-06-10T06:10:46.516Z,34.90
2018-06-10T06:13:14.566Z,36.88
2018-06-10T06:15:42.613Z,32.53
2018-06-10T06:18:10.656Z,39.23
2018-06-10T06:20:38.711Z,47.15
2018-06-10T06:23:06.760Z,41.18
2018-06-10T06:25:34.813Z,34.98
2018-06-10T06:28:02.862Z,40.28
2018-06-10T06:30:30.911Z,34.85
2018-06-10T06:32:58.976Z,32.00
2018-06-10T06:35:27.048Z,27.55
2018-06-10T06:37:55.122Z,29.63
2018-06-10T06:40:23.992Z,27.07
2018-06-10T06:42:52.070Z,25.77
2018-06-10T06:45:20.123Z,26.50
2018-06-10T06:47:48.221Z,29.70
2018-06-10T06:50:22.825Z,30.65
2018-06-10T06:52:51.090Z,24.52
2018-06-10T06:55:19.153Z,29.77
2018-06-10T06:57:47.246Z,24.67
2018-06-10T07:00:15.286Z,26.95
2018-06-10T07:02:43.348Z,23.67
2018-06-10T07:05:11.425Z,19.00
2018-06-10T07:07:39.485Z,23.98
2018-06-10T07:10:07.557Z,20.60
2018-06-10T07:12:35.629Z,23.80
2018-06-10T07:15:03.748Z,23.27
2018-06-10T07:17:31.817Z,22.80
2018-06-10T07:19:59.942Z,21.25
2018-06-10T07:22:27.941Z,23.42
2018-06-10T07:24:56.013Z,22.25
2018-06-10T07:27:24.100Z,23.90
2018-06-10T07:29:52.160Z,22.45
2018-06-10T07:32:20.216Z,24.45
2018-06-10T07:34:48.285Z,26.90
2018-06-10T07:37:16.313Z,24.15
2018-06-10T07:39:44.352Z,26.27
2018-06-10T07:42:12.268Z,25.08
2018-06-10T07:44:40.322Z,25.92
2018-06-10T07:47:08.364Z,23.18
2018-06-10T07:49:36.416Z,24.55
2018-06-10T07:52:04.511Z,25.12
2018-06-10T07:54:32.555Z,26.62
2018-06-10T07:57:00.593Z,27.30
2018-06-10T07:59:28.645Z,26.02
2018-06-10T08:01:56.700Z,25.35
2018-06-10T08:04:24.749Z,24.55
2018-06-10T08:06:52.800Z,26.05
2018-06-10T08:09:20.849Z,27.98
2018-06-10T08:11:48.917Z,26.52
2018-06-10T08:14:16.964Z,26.73
2018-06-10T08:16:45.018Z,28.10
2018-06-10T08:19:13.070Z,32.08
2018-06-10T08:21:41.120Z,29.23
2018-06-10T08:24:09.167Z,37.38
2018-06-10T08:26:37.213Z,34.48
2018-06-10T08:29:05.544Z,28.02
2018-06-10T08:31:33.583Z,27.70
2018-06-10T08:34:01.672Z,26.07
2018-06-10T08:36:29.730Z,24.77
2018-06-10T08:38:57.840Z,26.52
2018-06-10T08:41:25.899Z,29.55
2018-06-10T08:43:54.034Z,26.12
2018-06-10T08:46:22.032Z,26.10
2018-06-10T08:48:50.105Z,23.95
2018-06-10T08:51:18.178Z,20.40
2018-06-10T08:53:46.246Z,22.62
2018-06-10T08:56:14.301Z,21.37
2018-06-10T08:58:42.372Z,23.50
2018-06-10T09:01:10.425Z,21.75
2018-06-10T09:03:38.512Z,21.23
2018-06-10T09:06:06.364Z,22.42
2018-06-10T09:08:34.487Z,24.43
2018-06-10T09:11:02.499Z,20.77
2018-06-10T09:13:30.553Z,20.70
2018-06-10T09:15:58.664Z,21.37
2018-06-10T09:18:26.719Z,21.02
2018-06-10T09:20:54.805Z,22.55
2018-06-10T09:23:22.917Z,19.17
2018-06-10T09:25:50.984Z,19.77
2018-06-10T09:28:19.059Z,23.25
2018-06-10T09:30:47.123Z,21.12
2018-06-10T09:33:15.218Z,24.82
2018-06-10T09:35:43.298Z,23.67
2018-06-10T09:38:11.370Z,29.02
2018-06-10T09:40:39.445Z,19.37
2018-06-10T09:43:07.505Z,22.05
2018-06-10T09:45:35.577Z,21.62
2018-06-10T09:48:03.644Z,18.75
2018-06-10T09:50:31.715Z,20.57
2018-06-10T09:52:59.780Z,17.57
2018-06-10T09:55:27.933Z,16.60
2018-06-10T09:57:55.913Z,23.65
2018-06-10T10:00:24.498Z,19.70
2018-06-10T10:02:52.635Z,17.40
2018-06-10T10:05:20.643Z,19.95
2018-06-10T10:07:48.712Z,18.52
2018-06-10T10:10:16.808Z,19.23
2018-06-10T10:12:44.877Z,19.67
2018-06-10T10:15:12.944Z,18.30
2018-06-10T10:17:41.006Z,22.27
2018-06-10T10:20:09.068Z,20.62
2018-06-10T10:22:37.146Z,18.17
2018-06-10T10:25:05.212Z,18.98
2018-06-10T10:27:33.276Z,20.43
2018-06-10T10:30:01.351Z,18.95
2018-06-10T10:32:29.412Z,19.00
2018-06-10T10:34:57.476Z,24.10
2018-06-10T10:37:25.513Z,21.05
2018-06-10T10:39:53.557Z,20.72
2018-06-10T10:42:21.596Z,18.05
2018-06-10T10:44:49.635Z,18.05
2018-06-10T10:47:17.672Z,18.60
2018-06-10T10:49:45.727Z,15.60
2018-06-10T10:52:13.761Z,18.25
2018-06-10T10:54:41.810Z,14.95
2018-06-10T10:57:09.849Z,20.00
2018-06-10T10:59:37.887Z,17.55
2018-06-10T11:02:05.932Z,14.43
2018-06-10T11:04:33.988Z,15.53
2018-06-10T11:07:02.029Z,14.25
2018-06-10T11:09:30.073Z,16.05
2018-06-10T11:11:58.133Z,14.00
2018-06-10T11:14:26.169Z,11.93
2018-06-10T11:16:54.023Z,12.00
2018-06-10T11:19:22.060Z,11.53
2018-06-10T11:21:50.112Z,12.50
2018-06-10T11:24:18.164Z,13.32
2018-06-10T11:26:46.228Z,14.47
2018-06-10T11:29:14.307Z,15.05
2018-06-10T11:31:42.385Z,12.00
2018-06-10T11:34:10.452Z,11.85
2018-06-10T11:36:38.523Z,13.70
2018-06-10T11:39:08.062Z,11.43
2018-06-10T11:41:36.288Z,13.38
2018-06-10T11:44:04.565Z,12.05
2018-06-10T11:46:32.655Z,12.70
2018-06-10T11:49:00.700Z,12.20
2018-06-10T11:51:28.765Z,10.30
2018-06-10T11:53:56.818Z,9.85
2018-06-10T11:56:24.884Z,10.68
2018-06-10T11:58:53.006Z,10.43
2018-06-10T12:01:21.053Z,10.05
2018-06-10T12:03:49.116Z,10.25
2018-06-10T12:06:17.177Z,11.68
2018-06-10T12:08:45.229Z,9.25
2018-06-10T12:11:13.292Z,9.50
2018-06-10T12:13:41.352Z,9.98
2018-06-10T12:16:09.404Z,10.63
2018-06-10T12:18:37.452Z,10.30
2018-06-10T12:21:05.531Z,9.70
2018-06-10T12:23:33.576Z,8.98
2018-06-10T12:26:01.641Z,8.55
2018-06-10T12:28:29.693Z,8.73
2018-06-10T12:30:57.759Z,9.25
2018-06-10T12:33:25.921Z,9.25
2018-06-10T12:35:54.001Z,8.88
2018-06-10T12:38:22.056Z,8.83
2018-06-10T12:40:50.127Z,8.38
2018-06-10T12:43:18.232Z,8.68
2018-06-10T12:45:46.289Z,8.80
2018-06-10T12:48:14.341Z,8.15
2018-06-10T12:50:42.404Z,8.20
2018-06-10T12:53:10.471Z,8.55
2018-06-10T12:55:38.608Z,7.42
2018-06-10T13:00:41.124Z,10.32
2018-06-10T13:03:09.187Z,7.83
2018-06-10T13:05:37.252Z,7.55
2018-06-10T13:08:05.756Z,8.33
2018-06-10T13:10:33.828Z,8.25
2018-06-10T13:13:02.393Z,8.93
2018-06-10T13:15:30.522Z,8.83
2018-06-10T13:17:58.564Z,8.60
2018-06-10T13:20:26.628Z,8.85
2018-06-10T13:22:54.716Z,9.08
2018-06-10T13:25:22.769Z,8.18
2018-06-10T13:27:50.836Z,8.35
2018-06-10T13:30:18.897Z,10.53
2018-06-10T13:32:46.971Z,8.53
2018-06-10T13:35:15.037Z,12.00
2018-06-10T13:37:43.114Z,9.00
2018-06-10T13:40:11.176Z,9.68
2018-06-10T13:42:39.261Z,7.22
2018-06-10T13:45:07.308Z,9.60
2018-06-10T13:47:35.387Z,13.62
2018-06-10T13:50:03.456Z,8.58
2018-06-10T13:52:31.529Z,8.38
2018-06-10T13:54:59.592Z,9.98
2018-06-10T13:57:27.669Z,8.15
2018-06-10T13:59:55.742Z,10.13
2018-06-10T14:02:23.808Z,7.40
2018-06-10T14:04:51.864Z,8.55
2018-06-10T14:07:19.928Z,8.35
2018-06-10T14:09:47.988Z,8.33
2018-06-10T14:12:15.889Z,7.87
2018-06-10T14:14:43.954Z,10.70
2018-06-10T14:17:11.875Z,7.87
2018-06-10T14:19:39.953Z,10.05
2018-06-10T14:22:08.025Z,8.05
2018-06-10T14:24:36.094Z,6.60
2018-06-10T14:27:04.165Z,9.03
2018-06-10T14:29:32.294Z,7.67
2018-06-10T14:32:00.368Z,10.13
2018-06-10T14:34:28.428Z,8.78
2018-06-10T14:36:56.499Z,7.90
2018-06-10T14:39:24.568Z,10.48
2018-06-10T14:41:52.637Z,8.38
2018-06-10T14:44:20.692Z,8.53
2018-06-10T14:46:48.759Z,8.80
2018-06-10T14:49:16.816Z,8.58
2018-06-10T14:51:44.883Z,10.78
2018-06-10T14:54:12.941Z,8.80
2018-06-10T14:56:41.005Z,8.50
2018-06-10T14:59:09.064Z,8.58
2018-06-10T15:01:37.137Z,9.15
2018-06-10T15:04:05.317Z,8.35
2018-06-10T15:06:33.377Z,9.10
2018-06-10T15:09:01.430Z,8.80
2018-06-10T15:11:29.490Z,7.80
2018-06-10T15:13:57.545Z,11.65
2018-06-10T15:16:25.617Z,9.68
2018-06-10T15:18:53.686Z,8.50
2018-06-10T15:21:21.738Z,9.28
2018-06-10T15:23:49.821Z,10.78
2018-06-10T15:26:17.873Z,8.63
2018-06-10T15:28:47.169Z,9.00
2018-06-10T15:31:15.293Z,8.75
2018-06-10T15:33:43.344Z,9.73
2018-06-10T15:36:11.408Z,8.15
2018-06-10T15:38:39.476Z,8.55
2018-06-10T15:41:07.536Z,9.50
2018-06-10T15:43:35.589Z,7.97
2018-06-10T15:46:03.648Z,8.20
2018-06-10T15:48:31.680Z,8.50
2018-06-10T15:50:59.511Z,8.30
2018-06-10T15:53:27.548Z,8.90
2018-06-10T15:55:55.600Z,7.30
2018-06-10T15:58:23.648Z,8.03
2018-06-10T16:00:51.680Z,7.80
2018-06-10T16:03:19.724Z,9.60
2018-06-10T16:05:47.769Z,8.68
2018-06-10T16:08:15.821Z,8.33
2018-06-10T16:10:43.850Z,7.22
2018-06-10T16:13:11.896Z,10.00
2018-06-10T16:15:39.944Z,8.55
2018-06-10T16:18:07.981Z,7.10
2018-06-10T16:20:36.017Z,6.45
2018-06-10T16:23:04.056Z,7.50
2018-06-10T16:25:32.087Z,8.30
2018-06-10T16:28:00.125Z,8.13
2018-06-10T16:30:28.160Z,7.65
2018-06-10T16:32:56.257Z,7.33
2018-06-10T16:35:24.321Z,8.98
2018-06-10T16:37:52.372Z,7.92
2018-06-10T16:40:20.421Z,8.55
2018-06-10T16:42:48.488Z,8.68
2018-06-10T16:45:16.549Z,8.13
2018-06-10T16:47:44.610Z,8.35
2018-06-10T16:50:12.669Z,8.70
2018-06-10T16:52:40.738Z,8.23
2018-06-10T16:55:08.784Z,8.68
2018-06-10T16:57:36.863Z,8.65
2018-06-10T17:00:04.922Z,7.50
2018-06-10T17:02:32.980Z,10.00
2018-06-10T17:05:01.029Z,9.45
2018-06-10T17:07:29.101Z,10.35
2018-06-10T17:09:57.160Z,9.80
2018-06-10T17:12:25.230Z,13.43
2018-06-10T17:14:53.279Z,9.03
2018-06-10T17:17:21.420Z,9.73
2018-06-10T17:19:49.488Z,8.90
2018-06-10T17:22:17.556Z,10.68
2018-06-10T17:24:45.621Z,14.20
2018-06-10T17:27:13.680Z,11.48
2018-06-10T17:29:41.772Z,10.43
2018-06-10T17:32:09.817Z,14.28
2018-06-10T17:34:37.882Z,9.08
2018-06-10T17:37:05.896Z,11.33
2018-06-10T17:39:33.949Z,10.58
2018-06-10T17:42:01.980Z,9.50
2018-06-10T17:44:30.036Z,10.63
2018-06-10T17:46:58.073Z,10.80
2018-06-10T17:49:26.117Z,14.10
2018-06-10T17:51:54.161Z,9.90
2018-06-10T17:54:22.209Z,12.85
2018-06-10T17:56:50.282Z,11.65
2018-06-10T17:59:18.334Z,17.95
2018-06-10T18:01:46.163Z,11.33
2018-06-10T18:04:14.228Z,10.20
2018-06-10T18:06:42.282Z,12.55
2018-06-10T18:09:10.338Z,11.55
2018-06-10T18:11:38.389Z,13.20
2018-06-10T18:14:06.452Z,11.90
2018-06-10T18:16:34.501Z,12.63
2018-06-10T18:19:02.564Z,10.80
2018-06-10T18:21:30.607Z,12.85
2018-06-10T18:23:58.668Z,11.93
2018-06-10T18:26:26.715Z,12.82
2018-06-10T18:28:54.804Z,11.60
2018-06-10T18:31:22.849Z,12.45
2018-06-10T18:33:50.896Z,14.95
2018-06-10T18:36:18.949Z,14.55
2018-06-10T18:38:46.993Z,13.40
2018-06-10T18:41:15.077Z,13.90
2018-06-10T18:43:43.105Z,11.33
2018-06-10T18:46:11.156Z,14.03
2018-06-10T18:48:39.208Z,12.80
2018-06-10T18:51:07.273Z,15.53
2018-06-10T18:53:35.320Z,17.02
2018-06-10T18:56:03.359Z,15.10
2018-06-10T18:58:31.407Z,18.35
2018-06-10T19:00:59.463Z,19.42
2018-06-10T19:03:27.517Z,18.35
2018-06-10T19:05:55.565Z,18.40
2018-06-10T19:08:23.619Z,15.80
2018-06-10T19:10:51.664Z,18.45
2018-06-10T19:13:19.712Z,16.95
2018-06-10T19:15:47.777Z,19.30
2018-06-10T19:18:15.803Z,17.90
2018-06-10T19:20:43.849Z,18.57
2018-06-10T19:23:11.917Z,21.35
2018-06-10T19:25:39.961Z,17.25
2018-06-10T19:28:08.002Z,18.00
2018-06-10T19:30:36.064Z,16.20
2018-06-10T19:33:04.144Z,18.35
2018-06-10T19:35:32.269Z,16.97
2018-06-10T19:38:00.340Z,17.73
2018-06-10T19:40:28.412Z,19.45
2018-06-10T19:42:56.485Z,21.50
2018-06-10T19:45:24.565Z,17.55
2018-06-10T19:47:52.624Z,20.95
2018-06-10T19:50:20.696Z,19.62
2018-06-10T19:52:48.756Z,21.37
2018-06-10T19:55:16.820Z,20.82
2018-06-10T19:57:44.907Z,24.20
2018-06-10T20:00:12.949Z,23.45
2018-06-10T20:02:41.003Z,21.35
2018-06-10T20:05:09.073Z,23.07
2018-06-10T20:07:37.137Z,25.75
2018-06-10T20:10:05.581Z,25.70
2018-06-10T20:12:33.639Z,27.93
2018-06-10T20:15:01.708Z,22.02
2018-06-10T20:17:29.768Z,22.32
2018-06-10T20:19:57.834Z,20.57
2018-06-10T20:22:25.888Z,21.37
2018-06-10T20:24:53.966Z,20.52
2018-06-10T20:27:22.031Z,22.40
2018-06-10T20:29:50.100Z,21.82
2018-06-10T20:32:18.165Z,27.15
2018-06-10T20:34:46.266Z,23.15
2018-06-10T20:37:14.335Z,24.00
2018-06-10T20:39:42.401Z,23.77
2018-06-10T20:42:10.538Z,24.47
2018-06-10T20:44:38.585Z,21.10
2018-06-10T20:47:06.666Z,21.85
2018-06-10T20:49:34.724Z,22.00
2018-06-10T20:52:02.788Z,21.48
2018-06-10T20:54:30.897Z,17.90
2018-06-10T20:56:58.923Z,17.85
2018-06-10T20:59:26.985Z,18.87
2018-06-10T21:01:55.047Z,15.98
2018-06-10T21:04:23.109Z,15.13
2018-06-10T21:06:51.181Z,19.95
2018-06-10T21:09:19.235Z,14.93
2018-06-10T21:11:47.318Z,21.33
2018-06-10T21:14:15.385Z,18.23
2018-06-10T21:16:43.310Z,22.13
2018-06-10T21:19:11.404Z,17.65
2018-06-10T21:21:39.473Z,19.57
2018-06-10T21:24:07.532Z,19.23
2018-06-10T21:26:35.610Z,20.50
2018-06-10T21:29:03.685Z,20.48
2018-06-10T21:31:31.753Z,21.00
2018-06-10T21:34:00.032Z,28.83
2018-06-10T21:36:28.084Z,18.12
2018-06-10T21:38:56.149Z,17.30
2018-06-10T21:41:24.227Z,16.80
2018-06-10T21:43:52.280Z,20.48
2018-06-10T21:46:20.344Z,19.15
2018-06-10T21:48:48.408Z,18.27
2018-06-10T21:51:16.481Z,18.15
2018-06-10T21:53:44.540Z,18.42
2018-06-10T21:56:12.603Z,20.20
2018-06-10T21:58:40.665Z,17.07
2018-06-10T22:01:08.720Z,16.90
2018-06-10T22:03:36.788Z,16.52
2018-06-10T22:06:05.041Z,16.73
2018-06-10T22:08:33.108Z,15.28
2018-06-10T22:11:01.170Z,18.52
2018-06-10T22:13:29.242Z,16.52
2018-06-10T22:15:57.307Z,17.70
2018-06-10T22:18:25.401Z,13.45
2018-06-10T22:20:53.458Z,14.55
2018-06-10T22:23:21.516Z,14.43
2018-06-10T22:25:49.581Z,14.15
2018-06-10T22:28:17.644Z,12.85
2018-06-10T22:30:45.711Z,15.18
2018-06-10T22:33:13.785Z,18.10
2018-06-10T22:35:41.840Z,13.85
2018-06-10T22:38:09.909Z,14.33
2018-06-10T22:40:37.974Z,18.25
2018-06-10T22:43:06.032Z,13.43
2018-06-10T22:45:34.101Z,15.45
2018-06-10T22:48:02.166Z,13.18
2018-06-10T22:50:30.230Z,11.50
2018-06-10T22:53:10.748Z,11.73
2018-06-10T22:55:38.809Z,10.60
2018-06-10T22:58:06.876Z,12.15
2018-06-10T23:00:34.941Z,12.70
2018-06-10T23:03:03.012Z,13.90
2018-06-10T23:05:31.068Z,13.48
2018-06-10T23:07:59.137Z,15.05
2018-06-10T23:10:27.201Z,13.60
2018-06-10T23:12:55.268Z,14.43
2018-06-10T23:15:23.437Z,12.53
2018-06-10T23:17:51.504Z,14.25
2018-06-10T23:20:19.557Z,12.20
2018-06-10T23:22:47.632Z,14.43
2018-06-10T23:25:15.698Z,12.85
2018-06-10T23:27:43.765Z,14.58
2018-06-10T23:30:11.838Z,16.62
2018-06-10T23:32:39.880Z,14.07
2018-06-10T23:35:07.980Z,15.63
2018-06-10T23:37:36.080Z,15.83
2018-06-10T23:40:04.137Z,14.07
2018-06-10T23:42:32.193Z,17.65
2018-06-10T23:45:00.245Z,14.40
2018-06-10T23:47:28.280Z,14.95
2018-06-10T23:49:56.352Z,15.28
2018-06-10T23:52:24.386Z,14.90
2018-06-10T23:54:52.438Z,15.65
2018-06-10T23:57:20.482Z,14.03
2018-06-10T23:59:48.528Z,14.53
